sensor_id;sensor_type;location;lat;lon;timestamp;pressure;altitude;pressure_sealevel;temperature;humidity
19108;BME280;9686;48.832;9.126;2022-12-29T00:01:34;97698.84;;;14.33;nan
19108;BME280;9686;48.832;9.126;2022-12-29T00:04:00;97694.50;;;14.32;nan
19108;BME280;9686;48.832;9.126;2022-12-29T00:06:27;97691.94;;;14.29;nan
19108;BME280;9686;48.832;9.126;2022-12-29T00:08:52;97693.75;;;14.27;nan
19108;BME280;9686;48.832;9.126;2022-12-29T00:11:20;97687.53;;;14.30;nan
19108;BME280;9686;48.832;9.126;2022-12-29T00:13:46;97676.56;;;14.48;nan
19108;BME280;9686;48.832;9.126;2022-12-29T00:16:30;97670.41;;;14.49;nan
19108;BME280;9686;48.832;9.126;2022-12-29T00:18:56;97672.66;;;14.32;nan
19108;BME280;9686;48.832;9.126;2022-12-29T00:21:23;97666.81;;;14.52;nan
19108;BME280;9686;48.832;9.126;2022-12-29T00:24:14;97660.78;;;14.49;nan
19108;BME280;9686;48.832;9.126;2022-12-29T00:29:45;97664.16;;;14.53;nan
19108;BME280;9686;48.832;9.126;2022-12-29T00:32:29;97662.13;;;14.63;nan
19108;BME280;9686;48.832;9.126;2022-12-29T00:35:19;97659.44;;;14.64;nan
19108;BME280;9686;48.832;9.126;2022-12-29T00:37:47;97649.91;;;14.62;nan
19108;BME280;9686;48.832;9.126;2022-12-29T00:40:31;97659.56;;;14.61;nan
19108;BME280;9686;48.832;9.126;2022-12-29T00:43:15;97651.00;;;14.55;nan
19108;BME280;9686;48.832;9.126;2022-12-29T00:45:59;97645.19;;;14.73;nan
19108;BME280;9686;48.832;9.126;2022-12-29T00:48:24;97648.56;;;14.76;nan
19108;BME280;9686;48.832;9.126;2022-12-29T00:51:09;97638.91;;;14.77;nan
19108;BME280;9686;48.832;9.126;2022-12-29T00:53:34;97646.63;;;14.81;nan
19108;BME280;9686;48.832;9.126;2022-12-29T00:56:00;97646.13;;;14.70;nan
19108;BME280;9686;48.832;9.126;2022-12-29T00:58:29;97648.72;;;14.72;nan
19108;BME280;9686;48.832;9.126;2022-12-29T01:01:06;97650.00;;;14.59;nan
19108;BME280;9686;48.832;9.126;2022-12-29T01:03:32;97647.03;;;14.69;nan
19108;BME280;9686;48.832;9.126;2022-12-29T01:06:03;97650.00;;;14.59;nan
19108;BME280;9686;48.832;9.126;2022-12-29T01:08:29;97652.63;;;14.59;nan
19108;BME280;9686;48.832;9.126;2022-12-29T01:11:04;97663.34;;;14.51;nan
19108;BME280;9686;48.832;9.126;2022-12-29T01:13:30;97655.53;;;14.49;nan
19108;BME280;9686;48.832;9.126;2022-12-29T01:15:56;97663.25;;;14.54;nan
19108;BME280;9686;48.832;9.126;2022-12-29T01:18:22;97661.44;;;14.56;nan
19108;BME280;9686;48.832;9.126;2022-12-29T01:20:48;97663.75;;;14.37;nan
19108;BME280;9686;48.832;9.126;2022-12-29T01:23:13;97664.56;;;14.39;nan
19108;BME280;9686;48.832;9.126;2022-12-29T01:25:38;97664.75;;;14.33;nan
19108;BME280;9686;48.832;9.126;2022-12-29T01:28:04;97669.44;;;14.22;nan
19108;BME280;9686;48.832;9.126;2022-12-29T01:30:29;97668.63;;;14.20;nan
19108;BME280;9686;48.832;9.126;2022-12-29T01:32:55;97664.59;;;14.38;nan
19108;BME280;9686;48.832;9.126;2022-12-29T01:35:20;97651.63;;;14.33;nan
19108;BME280;9686;48.832;9.126;2022-12-29T01:37:46;97655.63;;;14.46;nan
19108;BME280;9686;48.832;9.126;2022-12-29T01:40:11;97663.34;;;14.51;nan
19108;BME280;9686;48.832;9.126;2022-12-29T01:42:36;97659.41;;;14.36;nan
19108;BME280;9686;48.832;9.126;2022-12-29T01:45:09;97661.22;;;14.64;nan
19108;BME280;9686;48.832;9.126;2022-12-29T01:47:55;97660.16;;;14.69;nan
19108;BME280;9686;48.832;9.126;2022-12-29T01:50:24;97665.22;;;14.75;nan
19108;BME280;9686;48.832;9.126;2022-12-29T01:52:59;97660.88;;;14.74;nan
19108;BME280;9686;48.832;9.126;2022-12-29T01:55:27;97664.19;;;14.52;nan
19108;BME280;9686;48.832;9.126;2022-12-29T01:57:55;97656.16;;;14.86;nan
19108;BME280;9686;48.832;9.126;2022-12-29T02:00:21;97650.81;;;14.89;nan
19108;BME280;9686;48.832;9.126;2022-12-29T02:02:51;97643.59;;;14.95;nan
19108;BME280;9686;48.832;9.126;2022-12-29T02:05:27;97641.66;;;15.00;nan
19108;BME280;9686;48.832;9.126;2022-12-29T02:07:53;97639.69;;;15.07;nan
19108;BME280;9686;48.832;9.126;2022-12-29T02:10:21;97631.97;;;15.02;nan
19108;BME280;9686;48.832;9.126;2022-12-29T02:12:48;97631.06;;;15.03;nan
19108;BME280;9686;48.832;9.126;2022-12-29T02:15:14;97632.50;;;14.87;nan
19108;BME280;9686;48.832;9.126;2022-12-29T02:18:09;97626.72;;;15.02;nan
19108;BME280;9686;48.832;9.126;2022-12-29T02:29:54;97636.13;;;14.81;nan
19108;BME280;9686;48.832;9.126;2022-12-29T02:36:18;97632.22;;;14.68;nan
19108;BME280;9686;48.832;9.126;2022-12-29T02:38:44;97632.75;;;14.78;nan
19108;BME280;9686;48.832;9.126;2022-12-29T02:41:21;97628.66;;;14.97;nan
19108;BME280;9686;48.832;9.126;2022-12-29T02:43:58;97624.41;;;14.93;nan
19108;BME280;9686;48.832;9.126;2022-12-29T02:46:33;97622.03;;;15.12;nan
19108;BME280;9686;48.832;9.126;2022-12-29T02:51:40;97616.41;;;15.23;nan
19108;BME280;9686;48.832;9.126;2022-12-29T02:54:07;97620.38;;;15.09;nan
19108;BME280;9686;48.832;9.126;2022-12-29T02:56:51;97623.50;;;15.21;nan
19108;BME280;9686;48.832;9.126;2022-12-29T02:59:16;97627.41;;;15.34;nan
19108;BME280;9686;48.832;9.126;2022-12-29T03:07:45;97619.84;;;15.25;nan
19108;BME280;9686;48.832;9.126;2022-12-29T03:15:41;97621.94;;;15.40;nan
19108;BME280;9686;48.832;9.126;2022-12-29T03:18:40;97605.50;;;15.60;nan
19108;BME280;9686;48.832;9.126;2022-12-29T03:24:11;97593.00;;;15.41;nan
19108;BME280;9686;48.832;9.126;2022-12-29T03:26:36;97606.41;;;15.59;nan
19108;BME280;9686;48.832;9.126;2022-12-29T03:29:03;97603.91;;;15.54;nan
19108;BME280;9686;48.832;9.126;2022-12-29T03:31:30;97595.94;;;15.57;nan
19108;BME280;9686;48.832;9.126;2022-12-29T03:33:56;97595.94;;;15.32;nan
19108;BME280;9686;48.832;9.126;2022-12-29T03:36:29;97594.31;;;15.53;nan
19108;BME280;9686;48.832;9.126;2022-12-29T03:39:06;97595.34;;;15.49;nan
19108;BME280;9686;48.832;9.126;2022-12-29T03:41:34;97582.44;;;15.43;nan
19108;BME280;9686;48.832;9.126;2022-12-29T03:44:00;97585.44;;;15.32;nan
19108;BME280;9686;48.832;9.126;2022-12-29T03:46:25;97575.19;;;15.50;nan
19108;BME280;9686;48.832;9.126;2022-12-29T03:48:51;97569.09;;;15.49;nan
19108;BME280;9686;48.832;9.126;2022-12-29T03:51:16;97570.63;;;15.30;nan
19108;BME280;9686;48.832;9.126;2022-12-29T03:53:41;97567.25;;;15.51;nan
19108;BME280;9686;48.832;9.126;2022-12-29T03:56:06;97582.44;;;15.43;nan
19108;BME280;9686;48.832;9.126;2022-12-29T03:58:32;97585.53;;;15.29;nan
19108;BME280;9686;48.832;9.126;2022-12-29T04:00:57;97574.06;;;15.32;nan
19108;BME280;9686;48.832;9.126;2022-12-29T04:03:23;97581.38;;;15.24;nan
19108;BME280;9686;48.832;9.126;2022-12-29T04:05:48;97582.16;;;15.26;nan
19108;BME280;9686;48.832;9.126;2022-12-29T04:08:13;97577.25;;;15.17;nan
19108;BME280;9686;48.832;9.126;2022-12-29T04:10:39;97581.00;;;15.09;nan
19108;BME280;9686;48.832;9.126;2022-12-29T04:13:04;97577.69;;;15.03;nan
19108;BME280;9686;48.832;9.126;2022-12-29T04:15:30;97579.78;;;14.93;nan
19108;BME280;9686;48.832;9.126;2022-12-29T04:17:55;97597.56;;;14.85;nan
19108;BME280;9686;48.832;9.126;2022-12-29T04:20:21;97602.19;;;15.03;nan
19108;BME280;9686;48.832;9.126;2022-12-29T04:23:05;97610.31;;;15.22;nan
19108;BME280;9686;48.832;9.126;2022-12-29T04:25:32;97609.06;;;15.32;nan
19108;BME280;9686;48.832;9.126;2022-12-29T04:27:57;97606.41;;;15.07;nan
19108;BME280;9686;48.832;9.126;2022-12-29T04:30:22;97609.28;;;15.26;nan
19108;BME280;9686;48.832;9.126;2022-12-29T04:32:48;97601.53;;;14.97;nan
19108;BME280;9686;48.832;9.126;2022-12-29T04:35:13;97596.41;;;14.94;nan
19108;BME280;9686;48.832;9.126;2022-12-29T04:37:38;97582.19;;;14.99;nan
19108;BME280;9686;48.832;9.126;2022-12-29T04:40:04;97576.00;;;14.75;nan
19108;BME280;9686;48.832;9.126;2022-12-29T04:42:30;97593.88;;;14.91;nan
19108;BME280;9686;48.832;9.126;2022-12-29T04:44:55;97588.91;;;14.81;nan
19108;BME280;9686;48.832;9.126;2022-12-29T04:47:20;97587.03;;;14.87;nan
19108;BME280;9686;48.832;9.126;2022-12-29T04:49:45;97586.50;;;14.75;nan
19108;BME280;9686;48.832;9.126;2022-12-29T04:52:11;97588.94;;;14.54;nan
19108;BME280;9686;48.832;9.126;2022-12-29T04:54:36;97592.72;;;14.45;nan
19108;BME280;9686;48.832;9.126;2022-12-29T04:57:01;97593.16;;;14.31;nan
19108;BME280;9686;48.832;9.126;2022-12-29T04:59:26;97599.69;;;14.16;nan
19108;BME280;9686;48.832;9.126;2022-12-29T05:01:52;97584.97;;;14.12;nan
19108;BME280;9686;48.832;9.126;2022-12-29T05:04:17;97585.19;;;14.62;nan
19108;BME280;9686;48.832;9.126;2022-12-29T05:06:42;97579.91;;;14.64;nan
19108;BME280;9686;48.832;9.126;2022-12-29T05:09:08;97576.47;;;14.62;nan
19108;BME280;9686;48.832;9.126;2022-12-29T05:11:33;97573.63;;;14.68;nan
19108;BME280;9686;48.832;9.126;2022-12-29T05:13:58;97580.13;;;14.56;nan
19108;BME280;9686;48.832;9.126;2022-12-29T05:16:24;97576.66;;;14.82;nan
19108;BME280;9686;48.832;9.126;2022-12-29T05:18:49;97567.28;;;14.75;nan
19108;BME280;9686;48.832;9.126;2022-12-29T05:21:14;97567.00;;;14.82;nan
19108;BME280;9686;48.832;9.126;2022-12-29T05:23:39;97554.72;;;14.85;nan
19108;BME280;9686;48.832;9.126;2022-12-29T05:26:05;97547.50;;;14.91;nan
19108;BME280;9686;48.832;9.126;2022-12-29T05:28:30;97558.09;;;14.88;nan
19108;BME280;9686;48.832;9.126;2022-12-29T05:30:55;97564.38;;;14.82;nan
19108;BME280;9686;48.832;9.126;2022-12-29T05:33:21;97579.56;;;14.99;nan
19108;BME280;9686;48.832;9.126;2022-12-29T05:35:46;97581.78;;;14.87;nan
19108;BME280;9686;48.832;9.126;2022-12-29T05:38:11;97579.38;;;15.05;nan
19108;BME280;9686;48.832;9.126;2022-12-29T05:40:37;97574.38;;;14.98;nan
19108;BME280;9686;48.832;9.126;2022-12-29T05:43:02;97575.25;;;14.98;nan
19108;BME280;9686;48.832;9.126;2022-12-29T05:45:27;97574.34;;;14.99;nan
19108;BME280;9686;48.832;9.126;2022-12-29T05:47:53;97584.13;;;14.94;nan
19108;BME280;9686;48.832;9.126;2022-12-29T05:50:18;97575.06;;;15.03;nan
19108;BME280;9686;48.832;9.126;2022-12-29T05:52:43;97582.03;;;15.04;nan
19108;BME280;9686;48.832;9.126;2022-12-29T05:55:09;97580.44;;;15.00;nan
19108;BME280;9686;48.832;9.126;2022-12-29T05:57:35;97568.88;;;15.05;nan
19108;BME280;9686;48.832;9.126;2022-12-29T06:00:00;97562.25;;;15.20;nan
19108;BME280;9686;48.832;9.126;2022-12-29T06:02:25;97565.44;;;15.28;nan
19108;BME280;9686;48.832;9.126;2022-12-29T06:04:51;97555.16;;;15.22;nan
19108;BME280;9686;48.832;9.126;2022-12-29T06:07:16;97544.88;;;15.41;nan
19108;BME280;9686;48.832;9.126;2022-12-29T06:09:41;97538.88;;;15.13;nan
19108;BME280;9686;48.832;9.126;2022-12-29T06:12:06;97535.75;;;15.01;nan
19108;BME280;9686;48.832;9.126;2022-12-29T06:14:32;97543.53;;;15.29;nan
19108;BME280;9686;48.832;9.126;2022-12-29T06:16:57;97549.31;;;15.39;nan
19108;BME280;9686;48.832;9.126;2022-12-29T06:19:22;97551.75;;;15.20;nan
19108;BME280;9686;48.832;9.126;2022-12-29T06:21:48;97566.25;;;15.30;nan
19108;BME280;9686;48.832;9.126;2022-12-29T06:24:13;97570.44;;;15.61;nan
19108;BME280;9686;48.832;9.126;2022-12-29T06:26:38;97563.81;;;15.49;nan
19108;BME280;9686;48.832;9.126;2022-12-29T06:29:05;97568.44;;;15.42;nan
19108;BME280;9686;48.832;9.126;2022-12-29T06:31:32;97566.06;;;15.36;nan
19108;BME280;9686;48.832;9.126;2022-12-29T06:33:57;97564.75;;;15.48;nan
19108;BME280;9686;48.832;9.126;2022-12-29T06:36:22;97555.38;;;15.41;nan
19108;BME280;9686;48.832;9.126;2022-12-29T06:38:48;97570.16;;;15.43;nan
19108;BME280;9686;48.832;9.126;2022-12-29T06:41:13;97557.09;;;15.17;nan
19108;BME280;9686;48.832;9.126;2022-12-29T06:43:38;97554.13;;;15.26;nan
19108;BME280;9686;48.832;9.126;2022-12-29T06:46:04;97563.16;;;15.44;nan
19108;BME280;9686;48.832;9.126;2022-12-29T06:48:30;97560.88;;;15.33;nan
19108;BME280;9686;48.832;9.126;2022-12-29T06:50:55;97555.44;;;15.39;nan
19108;BME280;9686;48.832;9.126;2022-12-29T06:53:20;97547.66;;;15.36;nan
19108;BME280;9686;48.832;9.126;2022-12-29T06:55:46;97566.91;;;15.37;nan
19108;BME280;9686;48.832;9.126;2022-12-29T06:58:11;97553.34;;;15.24;nan
19108;BME280;9686;48.832;9.126;2022-12-29T07:00:36;97544.56;;;15.25;nan
19108;BME280;9686;48.832;9.126;2022-12-29T07:03:02;97564.16;;;15.40;nan
19108;BME280;9686;48.832;9.126;2022-12-29T07:05:27;97555.16;;;15.22;nan
19108;BME280;9686;48.832;9.126;2022-12-29T07:07:53;97559.94;;;15.36;nan
19108;BME280;9686;48.832;9.126;2022-12-29T07:10:19;97568.69;;;15.36;nan
19108;BME280;9686;48.832;9.126;2022-12-29T07:12:44;97560.34;;;15.49;nan
19108;BME280;9686;48.832;9.126;2022-12-29T07:15:09;97559.78;;;15.40;nan
19108;BME280;9686;48.832;9.126;2022-12-29T07:17:35;97554.72;;;15.34;nan
19108;BME280;9686;48.832;9.126;2022-12-29T07:20:00;97562.47;;;15.39;nan
19108;BME280;9686;48.832;9.126;2022-12-29T07:22:25;97566.06;;;15.36;nan
19108;BME280;9686;48.832;9.126;2022-12-29T07:24:51;97566.84;;;15.38;nan
19108;BME280;9686;48.832;9.126;2022-12-29T07:27:16;97566.34;;;15.52;nan
19108;BME280;9686;48.832;9.126;2022-12-29T07:29:41;97573.81;;;15.15;nan
19108;BME280;9686;48.832;9.126;2022-12-29T07:32:07;97575.19;;;15.25;nan
19108;BME280;9686;48.832;9.126;2022-12-29T07:34:32;97577.41;;;15.12;nan
19108;BME280;9686;48.832;9.126;2022-12-29T07:36:57;97568.69;;;15.11;nan
19108;BME280;9686;48.832;9.126;2022-12-29T07:39:23;97559.16;;;15.07;nan
19108;BME280;9686;48.832;9.126;2022-12-29T07:41:48;97571.13;;;14.91;nan
19108;BME280;9686;48.832;9.126;2022-12-29T07:44:13;97571.44;;;14.80;nan
19108;BME280;9686;48.832;9.126;2022-12-29T07:46:38;97567.53;;;14.94;nan
19108;BME280;9686;48.832;9.126;2022-12-29T07:49:04;97571.91;;;14.93;nan
19108;BME280;9686;48.832;9.126;2022-12-29T07:51:29;97578.25;;;14.88;nan
19108;BME280;9686;48.832;9.126;2022-12-29T07:53:54;97578.88;;;14.94;nan
19108;BME280;9686;48.832;9.126;2022-12-29T07:56:19;97568.69;;;14.85;nan
19108;BME280;9686;48.832;9.126;2022-12-29T07:58:45;97578.78;;;14.97;nan
19108;BME280;9686;48.832;9.126;2022-12-29T08:01:10;97580.88;;;14.88;nan
19108;BME280;9686;48.832;9.126;2022-12-29T08:03:35;97582.94;;;14.50;nan
19108;BME280;9686;48.832;9.126;2022-12-29T08:06:01;97586.06;;;14.63;nan
19108;BME280;9686;48.832;9.126;2022-12-29T08:08:27;97599.78;;;14.71;nan
19108;BME280;9686;48.832;9.126;2022-12-29T08:10:52;97594.94;;;14.85;nan
19108;BME280;9686;48.832;9.126;2022-12-29T08:13:17;97593.81;;;14.92;nan
19108;BME280;9686;48.832;9.126;2022-12-29T08:15:42;97606.31;;;14.86;nan
19108;BME280;9686;48.832;9.126;2022-12-29T08:18:08;97610.00;;;14.78;nan
19108;BME280;9686;48.832;9.126;2022-12-29T08:20:33;97613.50;;;14.79;nan
19108;BME280;9686;48.832;9.126;2022-12-29T08:22:58;97605.22;;;14.91;nan
19108;BME280;9686;48.832;9.126;2022-12-29T08:25:24;97597.47;;;14.88;nan
19108;BME280;9686;48.832;9.126;2022-12-29T08:27:49;97600.84;;;14.92;nan
19108;BME280;9686;48.832;9.126;2022-12-29T08:30:14;97593.72;;;14.95;nan
19108;BME280;9686;48.832;9.126;2022-12-29T08:32:40;97595.28;;;15.01;nan
19108;BME280;9686;48.832;9.126;2022-12-29T08:35:05;97600.63;;;14.98;nan
19108;BME280;9686;48.832;9.126;2022-12-29T08:37:32;97592.00;;;14.94;nan
19108;BME280;9686;48.832;9.126;2022-12-29T08:39:58;97582.94;;;15.03;nan
19108;BME280;9686;48.832;9.126;2022-12-29T08:42:25;97590.19;;;14.96;nan
19108;BME280;9686;48.832;9.126;2022-12-29T08:44:55;97582.16;;;15.01;nan
19108;BME280;9686;48.832;9.126;2022-12-29T08:47:21;97587.88;;;14.87;nan
19108;BME280;9686;48.832;9.126;2022-12-29T08:49:46;97594.22;;;14.80;nan
19108;BME280;9686;48.832;9.126;2022-12-29T08:52:11;97589.69;;;14.85;nan
19108;BME280;9686;48.832;9.126;2022-12-29T08:54:37;97595.44;;;14.96;nan
19108;BME280;9686;48.832;9.126;2022-12-29T08:57:02;97594.63;;;14.94;nan
19108;BME280;9686;48.832;9.126;2022-12-29T08:59:27;97607.69;;;14.96;nan
19108;BME280;9686;48.832;9.126;2022-12-29T09:01:52;97600.56;;;14.99;nan
19108;BME280;9686;48.832;9.126;2022-12-29T09:04:18;97601.56;;;15.22;nan
19108;BME280;9686;48.832;9.126;2022-12-29T09:06:46;97604.31;;;15.19;nan
19108;BME280;9686;48.832;9.126;2022-12-29T09:09:11;97609.06;;;15.32;nan
19108;BME280;9686;48.832;9.126;2022-12-29T09:11:37;97609.88;;;15.34;nan
19108;BME280;9686;48.832;9.126;2022-12-29T09:14:03;97619.69;;;15.29;nan
19108;BME280;9686;48.832;9.126;2022-12-29T09:16:28;97624.69;;;15.37;nan
19108;BME280;9686;48.832;9.126;2022-12-29T09:18:53;97619.84;;;15.50;nan
19108;BME280;9686;48.832;9.126;2022-12-29T09:21:19;97622.59;;;15.47;nan
19108;BME280;9686;48.832;9.126;2022-12-29T09:23:44;97629.34;;;15.54;nan
19108;BME280;9686;48.832;9.126;2022-12-29T09:26:10;97627.00;;;15.71;nan
19108;BME280;9686;48.832;9.126;2022-12-29T09:28:35;97622.84;;;15.65;nan
19108;BME280;9686;48.832;9.126;2022-12-29T09:31:00;97622.41;;;16.01;nan
19108;BME280;9686;48.832;9.126;2022-12-29T09:33:26;97627.53;;;16.27;nan
19108;BME280;9686;48.832;9.126;2022-12-29T09:35:54;97631.66;;;16.56;nan
19108;BME280;9686;48.832;9.126;2022-12-29T09:38:19;97628.16;;;16.79;nan
19108;BME280;9686;48.832;9.126;2022-12-29T09:40:49;97636.00;;;16.81;nan
19108;BME280;9686;48.832;9.126;2022-12-29T09:43:46;97631.09;;;16.72;nan
19108;BME280;9686;48.832;9.126;2022-12-29T09:46:25;97628.69;;;17.09;nan
19108;BME280;9686;48.832;9.126;2022-12-29T09:51:32;97618.34;;;16.83;nan
19108;BME280;9686;48.832;9.126;2022-12-29T09:56:41;97627.41;;;17.19;nan
19108;BME280;9686;48.832;9.126;2022-12-29T09:59:16;97630.28;;;17.34;nan
19108;BME280;9686;48.832;9.126;2022-12-29T10:01:53;97634.44;;;17.39;nan
19108;BME280;9686;48.832;9.126;2022-12-29T10:04:21;97634.19;;;17.03;nan
19108;BME280;9686;48.832;9.126;2022-12-29T10:07:11;97640.56;;;17.19;nan
19108;BME280;9686;48.832;9.126;2022-12-29T10:12:31;97625.69;;;17.18;nan
19108;BME280;9686;48.832;9.126;2022-12-29T10:15:07;97634.47;;;16.97;nan
19108;BME280;9686;48.832;9.126;2022-12-29T10:23:29;97645.69;;;17.22;nan
19108;BME280;9686;48.832;9.126;2022-12-29T10:25:58;97634.19;;;17.03;nan
19108;BME280;9686;48.832;9.126;2022-12-29T10:28:42;97640.88;;;16.90;nan
19108;BME280;9686;48.832;9.126;2022-12-29T10:31:13;97632.81;;;16.94;nan
19108;BME280;9686;48.832;9.126;2022-12-29T10:33:42;97633.31;;;17.24;nan
19108;BME280;9686;48.832;9.126;2022-12-29T10:36:24;97635.75;;;17.29;nan
19108;BME280;9686;48.832;9.126;2022-12-29T10:39:16;97631.63;;;17.44;nan
19108;BME280;9686;48.832;9.126;2022-12-29T10:42:27;97632.91;;;17.34;nan
19108;BME280;9686;48.832;9.126;2022-12-29T10:44:33;97628.84;;;17.47;nan
19108;BME280;9686;48.832;9.126;2022-12-29T10:47:13;97629.16;;;17.60;nan
19108;BME280;9686;48.832;9.126;2022-12-29T10:49:41;97632.47;;;17.24;nan
19108;BME280;9686;48.832;9.126;2022-12-29T10:52:11;97628.59;;;17.53;nan
19108;BME280;9686;48.832;9.126;2022-12-29T10:55:22;97635.28;;;17.60;nan
19108;BME280;9686;48.832;9.126;2022-12-29T10:57:50;97628.34;;;17.79;nan
19108;BME280;9686;48.832;9.126;2022-12-29T11:00:22;97624.88;;;17.57;nan
19108;BME280;9686;48.832;9.126;2022-12-29T11:05:53;97631.09;;;17.76;nan
19108;BME280;9686;48.832;9.126;2022-12-29T11:08:25;97628.66;;;17.51;nan
19108;BME280;9686;48.832;9.126;2022-12-29T11:11:07;97629.81;;;17.65;nan
19108;BME280;9686;48.832;9.126;2022-12-29T11:13:35;97629.88;;;17.63;nan
19108;BME280;9686;48.832;9.126;2022-12-29T11:16:00;97633.25;;;17.87;nan
19108;BME280;9686;48.832;9.126;2022-12-29T11:18:35;97639.34;;;18.08;nan
19108;BME280;9686;48.832;9.126;2022-12-29T11:21:03;97638.25;;;17.93;nan
19108;BME280;9686;48.832;9.126;2022-12-29T11:28:45;97632.97;;;17.93;nan
19108;BME280;9686;48.832;9.126;2022-12-29T11:31:15;97632.47;;;17.85;nan
19108;BME280;9686;48.832;9.126;2022-12-29T11:33:41;97631.63;;;17.84;nan
19108;BME280;9686;48.832;9.126;2022-12-29T11:36:21;97629.44;;;18.13;nan
19108;BME280;9686;48.832;9.126;2022-12-29T11:38:54;97638.66;;;17.84;nan
19108;BME280;9686;48.832;9.126;2022-12-29T11:41:24;97635.56;;;17.54;nan
19108;BME280;9686;48.832;9.126;2022-12-29T11:43:51;97642.88;;;17.88;nan
19108;BME280;9686;48.832;9.126;2022-12-29T11:46:20;97637.94;;;17.40;nan
19108;BME280;9686;48.832;9.126;2022-12-29T11:48:47;97643.25;;;17.38;nan
19108;BME280;9686;48.832;9.126;2022-12-29T11:51:21;97638.72;;;17.21;nan
19108;BME280;9686;48.832;9.126;2022-12-29T11:53:50;97631.75;;;16.99;nan
19108;BME280;9686;48.832;9.126;2022-12-29T11:56:20;97638.63;;;16.81;nan
19108;BME280;9686;48.832;9.126;2022-12-29T11:58:49;97644.94;;;16.99;nan
19108;BME280;9686;48.832;9.126;2022-12-29T12:01:33;97643.94;;;17.01;nan
19108;BME280;9686;48.832;9.126;2022-12-29T12:04:08;97649.13;;;17.24;nan
19108;BME280;9686;48.832;9.126;2022-12-29T12:06:41;97654.84;;;16.70;nan
19108;BME280;9686;48.832;9.126;2022-12-29T12:09:18;97641.16;;;16.60;nan
19108;BME280;9686;48.832;9.126;2022-12-29T12:11:46;97634.66;;;16.71;nan
19108;BME280;9686;48.832;9.126;2022-12-29T12:14:31;97637.38;;;16.89;nan
19108;BME280;9686;48.832;9.126;2022-12-29T12:17:09;97643.56;;;16.88;nan
19108;BME280;9686;48.832;9.126;2022-12-29T12:19:41;97633.97;;;16.64;nan
19108;BME280;9686;48.832;9.126;2022-12-29T12:22:17;97638.75;;;16.78;nan
19108;BME280;9686;48.832;9.126;2022-12-29T12:24:51;97632.75;;;16.74;nan
19108;BME280;9686;48.832;9.126;2022-12-29T12:27:23;97643.22;;;16.98;nan
19108;BME280;9686;48.832;9.126;2022-12-29T12:32:46;97642.16;;;17.23;nan
19108;BME280;9686;48.832;9.126;2022-12-29T12:35:20;97631.16;;;17.34;nan
19108;BME280;9686;48.832;9.126;2022-12-29T12:45:58;97621.91;;;17.65;nan
19108;BME280;9686;48.832;9.126;2022-12-29T12:48:38;97615.94;;;17.81;nan
19108;BME280;9686;48.832;9.126;2022-12-29T12:56:57;97613.16;;;17.84;nan
19108;BME280;9686;48.832;9.126;2022-12-29T12:59:46;97606.56;;;17.34;nan
19108;BME280;9686;48.832;9.126;2022-12-29T13:02:29;97601.66;;;17.46;nan
19108;BME280;9686;48.832;9.126;2022-12-29T13:05:20;97601.81;;;17.42;nan
19108;BME280;9686;48.832;9.126;2022-12-29T13:13:51;97599.66;;;17.31;nan
19108;BME280;9686;48.832;9.126;2022-12-29T13:22:41;97602.94;;;16.95;nan
19108;BME280;9686;48.832;9.126;2022-12-29T13:31:27;97592.75;;;16.86;nan
19108;BME280;9686;48.832;9.126;2022-12-29T13:36:35;97590.09;;;16.64;nan
19108;BME280;9686;48.832;9.126;2022-12-29T13:39:09;97585.34;;;16.52;nan
19108;BME280;9686;48.832;9.126;2022-12-29T13:41:40;97581.47;;;16.61;nan
19108;BME280;9686;48.832;9.126;2022-12-29T13:44:10;97591.22;;;16.59;nan
19108;BME280;9686;48.832;9.126;2022-12-29T13:46:43;97591.22;;;16.59;nan
19108;BME280;9686;48.832;9.126;2022-12-29T13:49:17;97587.94;;;16.76;nan
19108;BME280;9686;48.832;9.126;2022-12-29T13:52:21;97593.53;;;16.68;nan
19108;BME280;9686;48.832;9.126;2022-12-29T13:57:49;97582.28;;;16.63;nan
19108;BME280;9686;48.832;9.126;2022-12-29T14:00:21;97596.22;;;16.65;nan
19108;BME280;9686;48.832;9.126;2022-12-29T14:03:08;97593.06;;;16.57;nan
19108;BME280;9686;48.832;9.126;2022-12-29T14:05:37;97588.72;;;16.56;nan
19108;BME280;9686;48.832;9.126;2022-12-29T14:08:05;97587.97;;;16.52;nan
19108;BME280;9686;48.832;9.126;2022-12-29T14:10:45;97598.38;;;16.55;nan
19108;BME280;9686;48.832;9.126;2022-12-29T14:13:13;97598.13;;;16.61;nan
19108;BME280;9686;48.832;9.126;2022-12-29T14:15:42;97600.47;;;16.47;nan
19108;BME280;9686;48.832;9.126;2022-12-29T14:18:19;97605.50;;;16.75;nan
19108;BME280;9686;48.832;9.126;2022-12-29T14:20:58;97600.94;;;16.57;nan
19108;BME280;9686;48.832;9.126;2022-12-29T14:23:48;97608.34;;;16.47;nan
19108;BME280;9686;48.832;9.126;2022-12-29T14:28:55;97607.41;;;16.72;nan
19108;BME280;9686;48.832;9.126;2022-12-29T14:36:35;97606.91;;;16.40;nan
19108;BME280;9686;48.832;9.126;2022-12-29T14:39:01;97601.75;;;16.59;nan
19108;BME280;9686;48.832;9.126;2022-12-29T14:41:38;97602.00;;;16.53;nan
19108;BME280;9686;48.832;9.126;2022-12-29T14:46:48;97608.09;;;16.31;nan
19108;BME280;9686;48.832;9.126;2022-12-29T14:49:23;97607.91;;;16.36;nan
19108;BME280;9686;48.832;9.126;2022-12-29T14:51:52;97603.75;;;16.30;nan
19108;BME280;9686;48.832;9.126;2022-12-29T14:54:43;97607.69;;;16.42;nan
19108;BME280;9686;48.832;9.126;2022-12-29T14:57:15;97602.44;;;16.42;nan
19108;BME280;9686;48.832;9.126;2022-12-29T14:59:44;97595.53;;;16.38;nan
19108;BME280;9686;48.832;9.126;2022-12-29T15:02:22;97589.34;;;16.41;nan
19108;BME280;9686;48.832;9.126;2022-12-29T15:04:50;97593.75;;;16.39;nan
19108;BME280;9686;48.832;9.126;2022-12-29T15:07:17;97596.84;;;16.50;nan
19108;BME280;9686;48.832;9.126;2022-12-29T15:10:03;97592.50;;;16.03;nan
19108;BME280;9686;48.832;9.126;2022-12-29T15:12:41;97586.13;;;16.32;nan
19108;BME280;9686;48.832;9.126;2022-12-29T15:15:19;97579.53;;;16.22;nan
19108;BME280;9686;48.832;9.126;2022-12-29T15:17:45;97578.31;;;16.08;nan
19108;BME280;9686;48.832;9.126;2022-12-29T15:20:24;97586.25;;;16.29;nan
19108;BME280;9686;48.832;9.126;2022-12-29T15:22:58;97590.66;;;16.06;nan
19108;BME280;9686;48.832;9.126;2022-12-29T15:25:26;97597.19;;;16.19;nan
19108;BME280;9686;48.832;9.126;2022-12-29T15:27:55;97602.41;;;15.97;nan
19108;BME280;9686;48.832;9.126;2022-12-29T15:30:22;97615.78;;;16.14;nan
19108;BME280;9686;48.832;9.126;2022-12-29T15:32:48;97625.44;;;16.14;nan